Time;durP1;ratioP1;P1;durP2;ratioP2;P2;SDS_P1;SDS_P2;PMS_P1;PMS_P2;Temp;Humidity;BMP_temperature;BMP_pressure;BME280_temperature;BME280_humidity;BME280_pressure;Samples;Min_cycle;Max_cycle;Signal;HPM_P1;HPM_P2
2022/04/06 00:00:05;;;;;;;23.27;6.03;;;;;;;9.30;87.21;100305.34;5072959;28;20024;-73
2022/04/06 00:02:30;;;;;;;23.70;6.05;;;;;;;9.22;87.32;100311.44;5073867;28;20059;-73
2022/04/06 00:04:56;;;;;;;25.30;5.75;;;;;;;9.22;87.65;100301.13;5073040;28;20599;-74
2022/04/06 00:07:21;;;;;;;23.50;5.80;;;;;;;9.28;87.27;100308.09;5074470;28;20036;-75
2022/04/06 00:09:46;;;;;;;20.23;4.93;;;;;;;9.29;87.65;100301.16;5092660;28;20031;-74
2022/04/06 00:12:11;;;;;;;28.02;5.95;;;;;;;9.22;88.00;100296.75;5074490;28;20016;-73
2022/04/06 00:14:37;;;;;;;28.73;6.18;;;;;;;9.29;88.01;100290.84;5092507;28;20387;-75
2022/04/06 00:17:05;;;;;;;25.15;5.30;;;;;;;9.23;88.76;100290.59;5092552;28;20107;-74
2022/04/06 00:19:34;;;;;;;19.80;5.10;;;;;;;9.25;88.88;100290.44;5074011;28;20472;-73
2022/04/06 00:22:00;;;;;;;23.42;5.43;;;;;;;9.22;88.91;100294.19;5074378;28;20031;-74
2022/04/06 00:24:26;;;;;;;27.75;6.20;;;;;;;9.18;88.97;100285.25;5074350;28;20490;-73
2022/04/06 00:26:52;;;;;;;23.48;4.95;;;;;;;9.21;88.71;100284.88;5092346;28;20027;-74
2022/04/06 00:29:17;;;;;;;27.38;5.15;;;;;;;9.21;89.26;100279.72;5095490;28;20028;-74
2022/04/06 00:31:42;;;;;;;25.25;4.95;;;;;;;9.19;89.31;100275.72;5095985;28;20472;-74
2022/04/06 00:34:08;;;;;;;33.80;5.63;;;;;;;9.15;89.80;100275.31;5096275;28;20209;-73
2022/04/06 00:36:33;;;;;;;34.58;5.68;;;;;;;9.13;90.37;100272.13;5077734;28;20019;-75
2022/04/06 00:38:58;;;;;;;32.75;6.03;;;;;;;9.13;90.82;100272.13;5077731;28;20024;-75
2022/04/06 00:41:24;;;;;;;27.80;5.88;;;;;;;9.20;90.44;100264.41;5077690;28;20028;-74
2022/04/06 00:44:08;;;;;;;24.85;5.65;;;;;;;9.17;90.44;100270.75;5095821;28;20016;-74
2022/04/06 00:46:33;;;;;;;25.35;5.80;;;;;;;9.17;90.82;100272.53;5095707;28;20459;-74
2022/04/06 00:48:58;;;;;;;29.48;6.60;;;;;;;9.15;91.06;100270.16;5077574;28;20032;-74
2022/04/06 00:51:24;;;;;;;27.58;5.90;;;;;;;9.09;91.21;100273.50;5095499;28;20479;-73
2022/04/06 00:53:49;;;;;;;36.70;7.50;;;;;;;9.09;92.03;100258.03;5077647;28;20051;-74
2022/04/06 00:56:14;;;;;;;27.65;6.43;;;;;;;9.12;91.82;100261.97;5095648;28;20070;-74
2022/04/06 00:58:40;;;;;;;32.55;6.90;;;;;;;9.16;91.38;100258.06;5095359;28;20131;-74
2022/04/06 01:01:05;;;;;;;29.42;6.38;;;;;;;9.18;91.22;100253.53;5095470;28;20024;-74
2022/04/06 01:03:30;;;;;;;27.08;6.97;;;;;;;9.14;91.27;100247.13;5095459;28;20375;-74
2022/04/06 01:05:56;;;;;;;35.78;7.25;;;;;;;9.09;91.51;100241.75;5077117;28;20065;-74
2022/04/06 01:08:21;;;;;;;33.40;7.22;;;;;;;9.15;91.84;100243.56;5095277;28;20031;-73
2022/04/06 01:10:46;;;;;;;29.25;7.18;;;;;;;9.15;91.55;100240.97;5095491;28;20032;-73
2022/04/06 01:13:12;;;;;;;27.95;7.72;;;;;;;9.14;91.57;100245.34;5077150;28;20020;-74
2022/04/06 01:15:37;;;;;;;26.33;7.70;;;;;;;9.12;92.15;100243.94;5095252;28;20028;-74
2022/04/06 01:18:03;;;;;;;29.95;7.32;;;;;;;9.16;91.91;100240.81;5095460;28;20058;-75
2022/04/06 01:20:29;;;;;;;31.05;7.97;;;;;;;9.16;91.86;100242.59;5076893;28;20119;-74
2022/04/06 01:22:54;;;;;;;32.40;7.43;;;;;;;9.18;91.25;100240.63;5077083;28;20437;-74
2022/04/06 01:25:19;;;;;;;30.40;7.47;;;;;;;9.12;91.92;100237.03;5076865;28;20101;-74
2022/04/06 01:27:45;;;;;;;28.35;7.20;;;;;;;9.16;91.81;100238.22;5077143;28;20023;-75
2022/04/06 01:30:10;;;;;;;23.63;7.15;;;;;;;9.17;91.15;100232.06;5077286;28;20039;-75
2022/04/06 01:32:36;;;;;;;32.42;7.63;;;;;;;9.21;91.18;100230.72;5094937;28;20031;-74
2022/04/06 01:35:04;;;;;;;29.45;7.10;;;;;;;9.20;90.89;100234.28;5094898;28;20421;-74
2022/04/06 01:37:31;;;;;;;21.88;6.38;;;;;;;9.17;91.05;100231.28;5060104;28;20081;-74
2022/04/06 01:39:56;;;;;;;30.58;7.20;;;;;;;9.18;91.31;100233.69;5075481;28;20012;-74
2022/04/06 01:42:22;;;;;;;26.48;6.57;;;;;;;9.25;90.58;100225.97;5094735;28;20112;-74
2022/04/06 01:44:48;;;;;;;30.58;7.13;;;;;;;9.19;90.34;100222.38;5094665;28;20474;-75
2022/04/06 01:47:16;;;;;;;25.60;6.38;;;;;;;9.17;90.46;100224.34;5094688;28;20563;-74
2022/04/06 01:52:25;;;;;;;26.83;5.78;;;;;;;9.21;89.75;100222.19;5094622;28;20051;-74
2022/04/06 01:54:54;;;;;;;27.35;5.55;;;;;;;9.21;89.56;100220.41;5094459;28;20395;-74
2022/04/06 01:57:20;;;;;;;33.03;6.03;;;;;;;9.26;89.00;100219.81;5094394;28;20103;-74
2022/04/06 01:59:47;;;;;;;23.73;4.93;;;;;;;9.27;88.77;100224.00;5094453;28;20027;-75
2022/04/06 02:02:15;;;;;;;24.23;5.15;;;;;;;9.16;88.87;100219.38;5094658;28;20024;-74
2022/04/06 02:04:41;;;;;;;18.35;4.78;;;;;;;9.16;87.95;100220.19;5076028;28;20024;-74
2022/04/06 02:07:09;;;;;;;16.80;4.32;;;;;;;9.16;88.01;100227.91;5094217;28;20040;-73
2022/04/06 02:09:36;;;;;;;22.95;5.22;;;;;;;9.11;87.91;100212.22;5094538;28;20081;-74
2022/04/06 02:12:01;;;;;;;22.17;4.50;;;;;;;9.24;87.51;100221.81;5075973;28;20429;-75
2022/04/06 02:14:27;;;;;;;18.75;4.80;;;;;;;9.15;86.91;100199.72;5094087;28;20028;-74
2022/04/06 02:16:52;;;;;;;20.80;4.18;;;;;;;9.24;86.73;100216.66;5094048;28;20024;-74
2022/04/06 02:19:17;;;;;;;16.02;3.88;;;;;;;9.15;86.92;100210.88;5075842;28;20107;-74
2022/04/06 02:21:43;;;;;;;20.30;4.13;;;;;;;9.14;86.66;100216.19;5094063;28;20102;-74
2022/04/06 02:24:08;;;;;;;15.88;4.05;;;;;;;9.15;86.54;100207.47;5093962;28;20032;-74
2022/04/06 02:26:34;;;;;;;25.27;4.60;;;;;;;9.14;86.62;100205.88;5075728;28;20065;-74
2022/04/06 02:29:02;;;;;;;18.75;3.83;;;;;;;9.13;86.48;100206.88;5093802;28;20039;-74
2022/04/06 02:31:27;;;;;;;17.60;4.10;;;;;;;9.13;87.05;100194.78;5093764;28;20098;-74
2022/04/06 02:33:53;;;;;;;25.05;5.40;;;;;;;9.19;86.34;100200.97;5075607;28;20547;-73
2022/04/06 02:36:18;;;;;;;15.95;4.53;;;;;;;9.15;86.24;100194.56;5075575;28;20024;-75
2022/04/06 02:38:47;;;;;;;20.60;4.60;;;;;;;9.11;86.83;100183.06;5093700;28;20016;-74
2022/04/06 02:41:13;;;;;;;21.55;4.38;;;;;;;9.12;86.76;100192.38;5093592;28;20023;-74
2022/04/06 02:43:38;;;;;;;22.90;4.82;;;;;;;9.10;86.49;100194.38;5093745;28;20020;-74
2022/04/06 02:46:04;;;;;;;19.00;4.60;;;;;;;9.04;86.17;100186.41;5075457;28;20487;-74
2022/04/06 02:48:29;;;;;;;19.50;4.47;;;;;;;9.07;86.49;100181.88;5075316;28;20031;-74
2022/04/06 02:50:55;;;;;;;16.00;4.50;;;;;;;9.00;86.96;100186.97;5075016;28;20028;-74
2022/04/06 02:53:21;;;;;;;15.63;4.60;;;;;;;9.01;87.14;100175.69;5093297;28;20115;-73
2022/04/06 02:55:46;;;;;;;18.70;4.93;;;;;;;9.00;87.40;100167.16;5093512;28;20031;-74
2022/04/06 02:58:11;;;;;;;17.35;4.03;;;;;;;8.96;87.67;100167.75;5093341;28;20028;-74
2022/04/06 03:00:36;;;;;;;23.65;5.55;;;;;;;8.94;87.03;100173.06;5093379;28;20024;-74
2022/04/06 03:03:03;;;;;;;17.02;4.32;;;;;;;8.98;87.17;100163.19;5093531;28;20073;-74
2022/04/06 03:05:28;;;;;;;16.58;4.00;;;;;;;8.96;87.29;100163.38;5093267;28;20024;-74
2022/04/06 03:07:54;;;;;;;23.42;4.88;;;;;;;8.94;86.32;100160.19;5075165;28;20093;-73
2022/04/06 03:10:19;;;;;;;23.95;4.97;;;;;;;8.96;86.35;100160.00;5093275;28;20360;-74
2022/04/06 03:12:45;;;;;;;28.85;4.10;;;;;;;8.91;86.24;100154.63;5075087;28;20032;-74
2022/04/06 03:15:11;;;;;;;20.58;3.70;;;;;;;8.88;86.19;100165.31;5093205;28;20054;-75
2022/04/06 03:17:36;;;;;;;21.17;4.18;;;;;;;8.90;85.64;100160.78;5093199;28;20035;-75
2022/04/06 03:20:04;;;;;;;15.32;3.47;;;;;;;8.91;85.06;100160.56;5075117;28;20114;-74
2022/04/06 03:22:29;;;;;;;13.82;3.30;;;;;;;8.86;84.39;100167.28;5093100;28;20024;-74
2022/04/06 03:24:55;;;;;;;17.08;3.20;;;;;;;8.89;84.20;100156.59;5093028;28;20076;-73
2022/04/06 03:27:20;;;;;;;14.32;3.10;;;;;;;8.89;85.16;100156.59;5093130;28;20114;-74
2022/04/06 03:29:45;;;;;;;11.82;2.60;;;;;;;8.74;84.18;100136.09;5093014;28;20568;-73
2022/04/06 03:32:11;;;;;;;11.88;2.97;;;;;;;8.86;83.53;100160.38;5093070;28;20357;-74
2022/04/06 03:34:37;;;;;;;17.02;3.10;;;;;;;8.84;82.80;100157.19;5093009;28;20024;-74
2022/04/06 03:37:03;;;;;;;10.13;2.50;;;;;;;8.84;82.63;100151.25;5092935;28;20030;-74
2022/04/06 03:39:28;;;;;;;14.23;2.63;;;;;;;8.83;82.04;100155.56;5092894;28;20023;-74
2022/04/06 03:41:53;;;;;;;10.13;2.30;;;;;;;8.82;81.96;100149.63;5074834;28;20031;-73
2022/04/06 03:44:19;;;;;;;11.77;2.67;;;;;;;8.79;81.58;100149.22;5092967;28;20386;-73
2022/04/06 03:46:44;;;;;;;9.73;2.13;;;;;;;8.82;81.99;100143.69;5092792;28;20024;-74
2022/04/06 03:49:10;;;;;;;13.25;3.20;;;;;;;8.90;81.42;100135.00;5092902;28;20032;-74
2022/04/06 03:51:35;;;;;;;7.65;2.08;;;;;;;8.89;80.63;100141.13;5092646;28;20083;-73
2022/04/06 03:54:00;;;;;;;8.70;2.17;;;;;;;8.86;79.49;100141.50;5092883;28;20487;-74
2022/04/06 03:56:26;;;;;;;10.65;2.25;;;;;;;8.81;80.74;100137.75;5092835;28;20021;-74
2022/04/06 03:58:52;;;;;;;14.48;2.22;;;;;;;8.83;79.97;100119.50;5074562;28;20027;-74
2022/04/06 04:01:17;;;;;;;9.02;2.10;;;;;;;8.75;79.80;100123.06;5092904;28;20580;-74
2022/04/06 04:03:43;;;;;;;10.23;2.10;;;;;;;8.72;80.12;100120.06;5095277;28;20032;-74
2022/04/06 04:06:08;;;;;;;9.68;2.65;;;;;;;8.71;80.28;100115.88;5096572;28;20066;-74
2022/04/06 04:08:33;;;;;;;11.75;2.10;;;;;;;8.61;80.87;100118.81;5096734;28;20031;-74
2022/04/06 04:10:59;;;;;;;11.30;2.05;;;;;;;8.66;80.90;100124.19;5096491;28;20099;-73
2022/04/06 04:13:24;;;;;;;13.38;2.10;;;;;;;8.66;80.99;100121.63;5078226;28;20027;-73
2022/04/06 04:15:49;;;;;;;7.93;1.98;;;;;;;8.68;80.74;100114.47;5096375;28;20012;-74
2022/04/06 04:18:15;;;;;;;13.80;2.33;;;;;;;8.70;80.67;100115.09;5078196;28;20020;-74
2022/04/06 04:20:41;;;;;;;8.73;1.63;;;;;;;8.66;80.88;100116.47;5096188;28;20450;-74
2022/04/06 04:23:07;;;;;;;12.52;2.08;;;;;;;8.65;80.84;100127.75;5096221;28;20107;-74
2022/04/06 04:25:32;;;;;;;9.82;2.20;;;;;;;8.62;80.75;100117.81;5096161;28;20067;-74
2022/04/06 04:27:58;;;;;;;9.77;1.73;;;;;;;8.54;80.97;100108.44;5096124;28;20028;-74
2022/04/06 04:30:23;;;;;;;10.43;1.75;;;;;;;8.53;80.62;100108.66;5096183;28;20024;-74
2022/04/06 04:32:48;;;;;;;8.93;1.90;;;;;;;8.53;80.73;100098.34;5096019;28;20103;-74
2022/04/06 04:35:14;;;;;;;11.65;2.92;;;;;;;8.55;81.28;100097.19;5095994;28;20016;-74
2022/04/06 04:37:39;;;;;;;10.48;2.05;;;;;;;8.53;80.68;100090.63;5096091;28;20048;-74
2022/04/06 04:40:06;;;;;;;10.60;2.30;;;;;;;8.42;80.54;100080.84;5082207;28;20537;-73
2022/04/06 04:42:31;;;;;;;11.52;2.53;;;;;;;8.46;81.43;100082.88;5114042;28;20024;-75
2022/04/06 04:44:57;;;;;;;12.95;2.47;;;;;;;8.48;81.43;100093.75;5094270;28;20024;-74
2022/04/06 04:47:22;;;;;;;10.13;2.13;;;;;;;8.45;81.20;100090.78;5077754;28;20160;-73
2022/04/06 04:49:48;;;;;;;11.57;2.10;;;;;;;8.45;82.27;100089.00;5098071;28;20081;-74
2022/04/06 04:52:13;;;;;;;15.02;2.40;;;;;;;8.46;82.40;100089.78;5098872;28;20465;-74
2022/04/06 04:54:38;;;;;;;11.75;2.30;;;;;;;8.58;81.77;100093.44;5095727;28;20089;-75
2022/04/06 04:57:04;;;;;;;10.77;2.50;;;;;;;8.53;82.13;100078.53;5077496;28;20368;-75
2022/04/06 04:59:29;;;;;;;12.32;2.30;;;;;;;8.50;82.97;100083.28;5077496;28;20030;-74
2022/04/06 05:01:54;;;;;;;17.23;2.45;;;;;;;8.58;83.10;100080.56;5095748;28;20456;-74
2022/04/06 05:04:20;;;;;;;11.90;2.72;;;;;;;8.56;82.81;100075.59;5077524;28;20027;-73
2022/04/06 05:06:45;;;;;;;14.10;2.63;;;;;;;8.62;83.55;100078.41;5095454;28;20122;-74
2022/04/06 05:09:10;;;;;;;12.52;3.03;;;;;;;8.65;83.39;100070.28;5077265;28;20032;-74
2022/04/06 05:11:36;;;;;;;17.88;2.88;;;;;;;8.62;83.25;100073.25;5078469;28;20052;-75
2022/04/06 05:14:02;;;;;;;13.95;2.90;;;;;;;8.55;83.44;100073.22;5078638;28;20107;-74
2022/04/06 05:16:27;;;;;;;11.98;2.40;;;;;;;8.64;82.68;100066.13;5096077;28;20020;-75
2022/04/06 05:18:55;;;;;;;14.80;2.67;;;;;;;8.69;83.06;100064.56;5095661;28;20020;-73
2022/04/06 05:21:21;;;;;;;12.80;2.45;;;;;;;8.69;82.62;100072.28;5095485;28;20020;-73
2022/04/06 05:23:46;;;;;;;15.35;2.70;;;;;;;8.61;82.75;100056.22;5077224;28;20039;-74
2022/04/06 05:26:12;;;;;;;13.85;2.60;;;;;;;8.65;82.93;100057.41;5095035;28;20371;-74
2022/04/06 05:28:38;;;;;;;12.68;2.55;;;;;;;8.62;83.97;100053.44;5079606;28;20484;-73
2022/04/06 05:31:03;;;;;;;13.85;2.72;;;;;;;8.68;82.92;100050.09;5095159;28;20111;-74
2022/04/06 05:33:28;;;;;;;18.17;2.80;;;;;;;8.68;83.12;100062.16;5095214;28;20016;-73
2022/04/06 05:35:54;;;;;;;14.52;3.38;;;;;;;8.72;82.84;100051.31;5077009;28;20027;-74
2022/04/06 05:38:19;;;;;;;9.85;2.30;;;;;;;8.73;82.98;100046.94;5094933;28;20021;-74
2022/04/06 05:40:44;;;;;;;15.48;2.53;;;;;;;8.66;82.90;100062.38;5077176;28;20032;-75
2022/04/06 05:43:10;;;;;;;16.10;2.45;;;;;;;8.70;83.67;100057.63;5094804;28;20031;-74
2022/04/06 05:45:36;;;;;;;11.60;2.55;;;;;;;8.71;82.80;100061.78;5076554;28;20111;-73
2022/04/06 05:48:02;;;;;;;15.82;2.70;;;;;;;8.74;83.60;100045.94;5094884;28;20387;-74
2022/04/06 05:50:28;;;;;;;15.60;2.97;;;;;;;8.73;83.20;100046.94;5094636;28;20103;-74
2022/04/06 05:52:53;;;;;;;14.90;2.90;;;;;;;8.81;82.58;100039.84;5094482;28;20117;-73
2022/04/06 05:55:18;;;;;;;10.35;2.80;;;;;;;8.89;82.91;100054.34;5076842;28;20024;-74
2022/04/06 05:57:44;;;;;;;14.95;2.83;;;;;;;8.89;83.48;100050.94;5094920;28;20131;-74
2022/04/06 06:00:09;;;;;;;11.82;2.75;;;;;;;8.91;82.88;100054.91;5076298;28;20020;-75
2022/04/06 06:02:35;;;;;;;9.85;2.80;;;;;;;8.91;83.34;100049.78;5094336;28;20064;-74
2022/04/06 06:05:01;;;;;;;14.73;2.50;;;;;;;8.85;83.35;100040.25;5094278;28;20099;-74
2022/04/06 06:07:26;;;;;;;13.90;2.78;;;;;;;8.92;83.53;100047.97;5094550;28;20032;-75
2022/04/06 06:09:51;;;;;;;12.07;2.75;;;;;;;8.94;83.47;100046.00;5094280;28;20069;-74
2022/04/06 06:12:17;;;;;;;12.48;2.95;;;;;;;9.00;83.68;100040.09;5075927;28;20406;-74
2022/04/06 06:14:42;;;;;;;12.98;3.05;;;;;;;9.01;83.08;100045.06;5094050;28;20058;-75
2022/04/06 06:17:07;;;;;;;10.20;2.53;;;;;;;9.06;82.43;100051.41;5094571;28;20548;-74
2022/04/06 06:19:32;;;;;;;16.58;2.70;;;;;;;9.03;83.69;100055.16;5076044;28;20077;-73
2022/04/06 06:21:58;;;;;;;17.77;3.35;;;;;;;9.07;83.17;100045.28;5094287;28;20066;-74
2022/04/06 06:24:24;;;;;;;14.13;3.30;;;;;;;9.05;83.31;100058.34;5094587;28;20496;-74
2022/04/06 06:26:49;;;;;;;16.65;2.90;;;;;;;8.99;83.44;100041.09;5093564;28;20022;-73
2022/04/06 06:29:15;;;;;;;14.15;3.15;;;;;;;9.05;83.52;100045.47;5094892;28;20180;-75
2022/04/06 06:31:40;;;;;;;21.52;3.17;;;;;;;9.03;83.95;100053.41;5076572;28;20028;-74
2022/04/06 06:34:05;;;;;;;17.73;2.80;;;;;;;9.10;82.91;100044.88;5095446;28;20074;-75
2022/04/06 06:36:31;;;;;;;17.65;3.00;;;;;;;9.07;82.58;100046.06;5075883;28;20110;-75
2022/04/06 06:38:56;;;;;;;10.43;2.28;;;;;;;9.02;82.35;100044.06;5093749;28;20059;-74
2022/04/06 06:41:22;;;;;;;16.20;2.42;;;;;;;9.07;81.53;100034.97;5075016;28;20130;-74
2022/04/06 06:43:49;;;;;;;15.68;3.45;;;;;;;9.16;81.67;100046.69;5093631;28;20039;-75
2022/04/06 06:46:16;;;;;;;16.75;2.70;;;;;;;9.15;81.53;100034.75;5094270;28;20012;-74
2022/04/06 06:48:42;;;;;;;12.48;2.40;;;;;;;9.19;80.52;100036.75;5093070;28;20035;-73
2022/04/06 06:51:07;;;;;;;13.98;2.80;;;;;;;9.37;79.82;100036.19;5090199;28;20028;-74
2022/04/06 06:53:32;;;;;;;14.18;2.63;;;;;;;9.44;78.98;100038.78;5074784;28;20465;-74
2022/04/06 06:55:58;;;;;;;17.52;2.85;;;;;;;9.37;79.38;100031.03;5074653;28;20069;-74
2022/04/06 06:58:23;;;;;;;11.60;2.15;;;;;;;9.23;79.72;100048.25;5092678;28;20103;-74
2022/04/06 07:00:48;;;;;;;10.60;2.33;;;;;;;9.35;79.02;100033.03;5093585;28;20034;-75
2022/04/06 07:03:14;;;;;;;16.10;2.30;;;;;;;9.27;79.15;100031.44;5079472;28;20552;-74
2022/04/06 07:05:39;;;;;;;9.05;2.03;;;;;;;9.39;79.30;100026.47;5093678;28;20531;-73
2022/04/06 07:08:04;;;;;;;11.35;2.20;;;;;;;9.35;78.77;100024.47;5093147;28;20471;-74
2022/04/06 07:10:30;;;;;;;9.35;1.98;;;;;;;9.44;79.04;100011.22;5092996;28;20122;-74
2022/04/06 07:12:55;;;;;;;11.88;2.30;;;;;;;9.43;77.90;100013.97;5075343;28;20089;-75
2022/04/06 07:15:22;;;;;;;13.10;2.15;;;;;;;9.53;77.79;100021.34;5075531;28;20173;-74
2022/04/06 07:17:54;;;;;;;11.05;2.40;;;;;;;9.51;77.40;100013.00;5092151;28;20031;-73
2022/04/06 07:20:21;;;;;;;13.45;2.58;;;;;;;9.66;77.83;100016.16;5092504;28;20030;-73
2022/04/06 07:22:46;;;;;;;12.02;2.30;;;;;;;9.74;78.66;100017.75;5090880;28;20447;-74
2022/04/06 07:25:12;;;;;;;14.05;2.72;;;;;;;9.66;78.89;100018.75;5075816;28;20019;-75
2022/04/06 07:27:38;;;;;;;11.38;1.92;;;;;;;9.32;79.61;100020.53;5090943;28;20032;-74
2022/04/06 07:30:05;;;;;;;11.07;2.03;;;;;;;9.38;81.36;100024.91;5093623;28;20472;-74
2022/04/06 07:32:31;;;;;;;13.18;2.30;;;;;;;9.34;81.01;100028.84;5094312;28;20027;-73
2022/04/06 07:34:57;;;;;;;11.32;2.65;;;;;;;9.28;81.85;100019.31;5093030;28;20028;-75
2022/04/06 07:37:22;;;;;;;15.10;2.20;;;;;;;9.25;82.41;100019.72;5095434;28;20110;-75
2022/04/06 07:39:47;;;;;;;10.57;2.22;;;;;;;9.20;84.37;100020.28;5078914;28;20131;-75
2022/04/06 07:42:13;;;;;;;11.23;2.45;;;;;;;9.10;85.76;100025.06;5097224;28;20446;-74
2022/04/06 07:44:38;;;;;;;13.57;2.28;;;;;;;8.97;87.73;100018.06;5080489;28;20032;-74
2022/04/06 07:47:03;;;;;;;10.52;2.58;;;;;;;8.90;88.16;100019.84;5078735;28;20085;-73
2022/04/06 07:49:29;;;;;;;16.17;2.53;;;;;;;8.97;89.42;100015.50;5098952;28;20028;-74
2022/04/06 07:51:54;;;;;;;11.48;2.20;;;;;;;8.87;90.40;100009.94;5096685;28;20062;-73
2022/04/06 07:54:19;;;;;;;14.30;2.47;;;;;;;8.78;90.95;100003.38;5079675;28;20123;-72
2022/04/06 07:56:45;;;;;;;10.65;2.28;;;;;;;8.64;92.39;100002.53;5097158;28;20024;-72
2022/04/06 07:59:10;;;;;;;14.80;2.63;;;;;;;8.69;93.04;99996.78;5078500;28;20493;-73
2022/04/06 08:01:35;;;;;;;13.90;2.22;;;;;;;8.66;93.52;100010.88;5082020;28;20044;-73
2022/04/06 08:04:00;;;;;;;12.63;2.42;;;;;;;8.61;93.85;100000.34;5079516;28;20133;-72
2022/04/06 08:06:26;;;;;;;14.75;2.60;;;;;;;8.63;93.55;99989.81;5096195;28;20467;-73
2022/04/06 08:08:53;;;;;;;15.15;2.42;;;;;;;8.55;94.23;99991.59;5076316;28;20382;-73
2022/04/06 08:11:20;;;;;;;14.18;3.20;;;;;;;8.63;94.19;99989.81;5076352;28;20012;-73
2022/04/06 08:13:46;;;;;;;14.30;2.55;;;;;;;8.48;95.48;99983.03;5095620;28;20024;-74
2022/04/06 08:16:11;;;;;;;11.93;2.60;;;;;;;8.53;95.15;99975.53;5078131;28;20020;-73
2022/04/06 08:18:36;;;;;;;13.80;2.67;;;;;;;8.70;95.12;99986.28;5096326;28;20379;-73
2022/04/06 08:21:02;;;;;;;14.60;2.95;;;;;;;8.57;94.75;99979.34;5076413;28;20039;-74
2022/04/06 08:23:27;;;;;;;12.10;2.75;;;;;;;8.63;95.10;99985.50;5096511;28;20028;-73
2022/04/06 08:25:53;;;;;;;19.15;3.45;;;;;;;8.72;95.12;99980.97;5078106;28;20016;-74
2022/04/06 08:28:19;;;;;;;15.98;3.00;;;;;;;8.69;94.72;99982.16;5094445;28;20028;-73
2022/04/06 08:30:47;;;;;;;9.30;2.75;;;;;;;8.76;94.40;99980.38;5074186;28;20051;-73
2022/04/06 08:33:12;;;;;;;13.68;3.28;;;;;;;8.68;94.35;99977.97;5059190;28;20069;-72
2022/04/06 08:35:40;;;;;;;13.88;3.05;;;;;;;8.75;94.59;99978.78;5094019;28;20016;-73
2022/04/06 08:38:06;;;;;;;12.93;3.13;;;;;;;8.74;94.44;99976.38;5075836;28;20020;-73
2022/04/06 08:40:33;;;;;;;12.25;2.80;;;;;;;8.73;94.88;99972.25;5093915;28;20024;-73
2022/04/06 08:42:59;;;;;;;15.93;3.10;;;;;;;8.76;95.25;99972.63;5074276;28;20036;-73
2022/04/06 08:45:24;;;;;;;16.63;2.95;;;;;;;8.73;94.72;99967.88;5074664;28;20016;-73
2022/04/06 08:47:51;;;;;;;14.55;3.97;;;;;;;8.74;94.32;99971.25;5094343;28;20047;-74
2022/04/06 08:50:19;;;;;;;15.43;3.20;;;;;;;8.86;94.60;99964.56;5094909;28;20028;-74
2022/04/06 08:52:46;;;;;;;19.10;3.53;;;;;;;8.88;95.51;99970.28;5095691;28;20047;-73
2022/04/06 08:55:12;;;;;;;17.67;3.78;;;;;;;8.89;95.34;99964.16;5060970;28;20032;-73
2022/04/06 08:57:40;;;;;;;15.65;3.83;;;;;;;8.89;95.68;99964.16;5095891;28;20024;-74
2022/04/06 09:00:07;;;;;;;17.45;3.40;;;;;;;8.80;96.34;99963.53;5095715;28;20072;-74
2022/04/06 09:02:32;;;;;;;15.00;3.55;;;;;;;8.84;97.43;99958.78;5077540;28;20519;-73
2022/04/06 09:04:58;;;;;;;17.25;3.75;;;;;;;8.85;97.11;99957.78;5095462;28;20031;-73
2022/04/06 09:07:24;;;;;;;17.58;4.22;;;;;;;8.78;97.37;99955.22;5077212;28;20089;-73
2022/04/06 09:09:51;;;;;;;17.08;4.47;;;;;;;8.78;97.07;99959.56;5095728;28;20020;-74
2022/04/06 09:12:18;;;;;;;13.98;3.78;;;;;;;8.74;97.34;99961.72;5097157;28;20107;-73
2022/04/06 09:14:44;;;;;;;17.63;5.25;;;;;;;8.74;98.28;99968.66;5095569;28;20024;-74
2022/04/06 09:17:09;;;;;;;13.30;3.90;;;;;;;8.74;98.37;99963.50;5077882;28;20162;-72
2022/04/06 09:19:44;;;;;;;13.93;4.38;;;;;;;8.72;98.60;99960.34;5076778;28;20061;-73
2022/04/06 09:22:09;;;;;;;15.43;4.20;;;;;;;8.71;98.27;99958.75;5094689;28;20023;-73
2022/04/06 09:24:35;;;;;;;15.48;4.90;;;;;;;8.64;99.00;99963.91;5093303;28;20532;-73
2022/04/06 09:27:01;;;;;;;16.45;4.40;;;;;;;8.77;98.70;99973.41;5094890;28;20024;-73
2022/04/06 09:29:27;;;;;;;19.63;4.10;;;;;;;8.89;97.78;99960.75;5076460;28;20036;-73
2022/04/06 09:31:53;;;;;;;13.23;4.40;;;;;;;8.80;98.07;99955.00;5076435;28;20023;-74
2022/04/06 09:34:23;;;;;;;17.25;4.50;;;;;;;8.90;98.18;99952.06;5076630;28;20479;-73
2022/04/06 09:36:56;;;;;;;14.90;4.75;;;;;;;8.84;97.92;99940.75;5078146;28;20016;-73
2022/04/06 09:39:43;;;;;;;15.27;4.80;;;;;;;8.92;97.93;99948.31;5099020;28;20042;-74
2022/04/06 09:42:09;;;;;;;11.57;4.53;;;;;;;9.10;97.71;99952.09;5075219;28;20026;-72
2022/04/06 09:47:38;;;;;;;12.93;5.05;;;;;;;9.10;97.41;99959.81;5090096;28;20207;-73
2022/04/06 09:50:16;;;;;;;15.70;4.68;;;;;;;9.00;97.29;99947.31;5088335;28;20040;-72
2022/04/06 09:52:43;;;;;;;15.55;5.03;;;;;;;8.96;97.33;99954.66;5073133;28;20446;-72
2022/04/06 09:55:11;;;;;;;17.05;5.20;;;;;;;9.06;97.22;99950.88;5091289;28;20035;-73
2022/04/06 09:57:47;;;;;;;11.95;5.22;;;;;;;9.12;97.23;99938.03;5091052;28;20039;-73
2022/04/06 10:00:16;;;;;;;14.50;5.65;;;;;;;9.11;96.96;99931.25;5090515;28;20035;-73
2022/04/06 10:02:44;;;;;;;13.88;5.53;;;;;;;9.25;96.75;99947.53;5094048;28;20490;-72
2022/04/06 10:05:12;;;;;;;16.08;5.15;;;;;;;9.49;95.43;99933.22;5091521;28;20047;-73
2022/04/06 10:07:39;;;;;;;22.75;5.80;;;;;;;9.73;94.89;99933.63;5073087;28;20505;-72
2022/04/06 10:10:05;;;;;;;16.30;5.60;;;;;;;9.98;93.88;99928.56;5058718;28;20103;-74
2022/04/06 10:12:30;;;;;;;17.65;5.35;;;;;;;10.25;92.33;99917.16;5075856;28;20062;-73
2022/04/06 10:14:59;;;;;;;20.88;5.30;;;;;;;10.31;90.81;99918.16;5093222;28;20039;-74
2022/04/06 10:17:25;;;;;;;22.95;5.55;;;;;;;10.80;90.09;99932.97;5075830;28;20020;-74
2022/04/06 10:19:58;;;;;;;18.88;5.60;;;;;;;10.89;89.44;99919.81;5078780;28;20028;-74
2022/04/06 10:22:42;;;;;;;19.88;5.60;;;;;;;10.78;89.77;99914.31;5111609;27;20456;-49
2022/04/06 10:25:14;;;;;;;23.15;5.93;;;;;;;10.70;88.98;99909.38;5110757;28;20039;-42
2022/04/06 10:27:48;;;;;;;15.95;5.35;;;;;;;10.74;89.88;99909.78;5110994;28;20031;-49
2022/04/06 10:30:19;;;;;;;21.67;5.75;;;;;;;10.71;90.29;99902.44;5111346;28;20024;-45
2022/04/06 10:32:49;;;;;;;19.67;5.57;;;;;;;10.46;90.76;99907.56;5110613;28;20019;-45
2022/04/06 10:35:37;;;;;;;15.93;5.47;;;;;;;10.43;90.49;99908.75;5089853;28;20029;-40
2022/04/06 10:38:02;;;;;;;16.60;5.30;;;;;;;10.68;88.85;99895.09;5089954;28;20489;-40
2022/04/06 10:40:42;;;;;;;22.60;6.20;;;;;;;10.65;89.74;99892.94;5090200;28;20032;-42
2022/04/06 10:43:36;;;;;;;17.63;5.45;;;;;;;10.51;88.86;99892.22;5090612;28;20285;-41
2022/04/06 10:46:06;;;;;;;13.63;5.00;;;;;;;10.69;89.58;99888.94;5090807;28;20073;-41
2022/04/06 10:48:31;;;;;;;11.82;5.40;;;;;;;10.76;88.59;99893.06;5090013;28;20058;-41
2022/04/06 10:51:37;;;;;;;15.55;5.63;;;;;;;10.61;89.54;99892.56;5089574;28;20051;-41
2022/04/06 10:54:14;;;;;;;17.48;6.10;;;;;;;10.47;89.64;99886.69;5089405;28;20055;-42
2022/04/06 10:56:48;;;;;;;20.67;6.25;;;;;;;10.31;89.84;99867.28;5090571;28;20116;-42
2022/04/06 10:59:16;;;;;;;22.50;5.75;;;;;;;10.39;89.46;99879.19;5089578;28;20030;-41
2022/04/06 11:01:45;;;;;;;22.23;5.63;;;;;;;10.47;89.48;99876.38;5088922;28;20471;-42
2022/04/06 11:04:22;;;;;;;13.50;5.10;;;;;;;10.42;89.31;99878.78;5088969;28;20020;-42
2022/04/06 11:06:49;;;;;;;15.20;4.88;;;;;;;10.29;89.10;99868.50;5089906;28;20043;-42
2022/04/06 11:12:14;;;;;;;20.48;5.13;;;;;;;10.35;90.09;99858.13;5089559;28;20067;-41
2022/04/06 11:14:41;;;;;;;16.45;4.72;;;;;;;10.34;89.87;99868.69;5088708;28;20123;-41
2022/04/06 11:17:45;;;;;;;18.27;5.30;;;;;;;10.46;88.87;99861.84;5089405;28;20097;-41
2022/04/06 11:20:10;;;;;;;;;;;;;;;10.56;88.25;99871.75;5090884;28;20038;-42
2022/04/06 11:22:42;;;;;;;13.23;4.40;;;;;;;10.66;88.05;99851.38;5109882;28;19912;-41
2022/04/06 11:25:10;;;;;;;16.52;4.78;;;;;;;10.69;86.59;99865.69;5109933;28;20279;-42
2022/04/06 11:27:36;;;;;;;16.33;4.78;;;;;;;10.71;87.11;99858.50;5109595;28;20103;-41
2022/04/06 11:30:07;;;;;;;18.27;5.57;;;;;;;10.86;86.65;99866.75;5110034;28;20045;-41
2022/04/06 11:32:34;;;;;;;13.10;4.40;;;;;;;10.79;86.79;99853.88;5086452;28;20024;-42